RYR1DB EGSS-LEAM
Flight info
| Callsign | RYR1DB |
|---|---|
| Flight time | 2h 32m |
| Altitude | 37000 |
| Route | NUGBO M183 SILVA Q41 SAM N63 LELNA DCT NOVAN DCT NENEM P152 PPN N10 CJN L27 BLN N865 ESILA |
| Aircraft | B738/M-SDE3FGILRWY/SB1 |
Departure
| Time | 2026-04-20 20:21 |
|---|---|
| Airport | London Stansted Airport (EGSS) |
Arrival
| Time | 2026-04-20 22:53 |
|---|---|
| Airport | Almería Airport (LEAM) |
| Time | Latitude | Longitude | Altitude | Speed | Heading |
|---|---|---|---|---|---|
| 2026-04-20 19:46 | 51.89107 | 0.25572 | 358 ft | 0 kts | 44° |
| 2026-04-20 20:10 | 51.89105 | 0.25568 | 348 ft | 3 kts | 44° |
| 2026-04-20 20:10 | 51.89088 | 0.25543 | 355 ft | 2 kts | 42° |
| 2026-04-20 20:10 | 51.89069 | 0.25517 | 353 ft | 4 kts | 31° |
| 2026-04-20 20:11 | 51.89049 | 0.25506 | 349 ft | 4 kts | 325° |
| 2026-04-20 20:11 | 51.89031 | 0.25534 | 358 ft | 3 kts | 313° |
| 2026-04-20 20:11 | 51.89029 | 0.25537 | 353 ft | 0 kts | 313° |
| 2026-04-20 20:14 | 51.89045 | 0.25509 | 355 ft | 8 kts | 313° |
| 2026-04-20 20:14 | 51.89100 | 0.25414 | 348 ft | 13 kts | 313° |
| 2026-04-20 20:14 | 51.89157 | 0.25310 | 355 ft | 12 kts | 296° |
| 2026-04-20 20:14 | 51.89123 | 0.25199 | 348 ft | 12 kts | 223° |
| 2026-04-20 20:15 | 51.89051 | 0.25090 | 355 ft | 19 kts | 223° |
| 2026-04-20 20:15 | 51.88932 | 0.24911 | 348 ft | 25 kts | 223° |
| 2026-04-20 20:15 | 51.88806 | 0.24722 | 357 ft | 24 kts | 223° |
| 2026-04-20 20:15 | 51.88689 | 0.24546 | 348 ft | 23 kts | 223° |
| 2026-04-20 20:16 | 51.88575 | 0.24375 | 350 ft | 22 kts | 223° |
| 2026-04-20 20:16 | 51.88455 | 0.24196 | 352 ft | 25 kts | 223° |
| 2026-04-20 20:16 | 51.88330 | 0.24008 | 351 ft | 24 kts | 223° |
| 2026-04-20 20:16 | 51.88212 | 0.23832 | 353 ft | 23 kts | 222° |
| 2026-04-20 20:17 | 51.88098 | 0.23661 | 348 ft | 22 kts | 222° |
| 2026-04-20 20:17 | 51.87988 | 0.23495 | 348 ft | 21 kts | 223° |
| 2026-04-20 20:17 | 51.87880 | 0.23333 | 356 ft | 21 kts | 223° |
| 2026-04-20 20:17 | 51.87776 | 0.23177 | 352 ft | 19 kts | 224° |
| 2026-04-20 20:18 | 51.87731 | 0.23057 | 348 ft | 12 kts | 274° |
| 2026-04-20 20:18 | 51.87776 | 0.22957 | 348 ft | 11 kts | 307° |
| 2026-04-20 20:18 | 51.87761 | 0.22855 | 354 ft | 10 kts | 224° |
| 2026-04-20 20:18 | 51.87692 | 0.22753 | 350 ft | 19 kts | 223° |
| 2026-04-20 20:19 | 51.87583 | 0.22590 | 351 ft | 22 kts | 223° |
| 2026-04-20 20:19 | 51.87470 | 0.22421 | 339 ft | 20 kts | 223° |
| 2026-04-20 20:19 | 51.87400 | 0.22273 | 336 ft | 15 kts | 262° |
| 2026-04-20 20:19 | 51.87428 | 0.22156 | 335 ft | 9 kts | 311° |
| 2026-04-20 20:20 | 51.87475 | 0.22076 | 333 ft | 10 kts | 313° |
| 2026-04-20 20:20 | 51.87533 | 0.22037 | 332 ft | 10 kts | 14° |
| 2026-04-20 20:20 | 51.87585 | 0.22107 | 334 ft | 13 kts | 43° |
| 2026-04-20 20:20 | 51.87833 | 0.22480 | 338 ft | 85 kts | 43° |
| 2026-04-20 20:21 | 51.88429 | 0.23370 | 343 ft | 146 kts | 43° |
| 2026-04-20 20:21 | 51.89255 | 0.24604 | 754 ft | 166 kts | 43° |
| 2026-04-20 20:21 | 51.90105 | 0.25849 | 1740 ft | 162 kts | 43° |
| 2026-04-20 20:21 | 51.90983 | 0.27158 | 2334 ft | 185 kts | 44° |
| 2026-04-20 20:22 | 51.91985 | 0.28682 | 2603 ft | 209 kts | 43° |
| 2026-04-20 20:22 | 51.93281 | 0.29839 | 3128 ft | 221 kts | 14° |
| 2026-04-20 20:22 | 51.94831 | 0.29720 | 3746 ft | 230 kts | 344° |
| 2026-04-20 20:22 | 51.96179 | 0.28298 | 4478 ft | 238 kts | 314° |
| 2026-04-20 20:23 | 51.96946 | 0.25825 | 4923 ft | 260 kts | 288° |
| 2026-04-20 20:23 | 51.97294 | 0.22889 | 4964 ft | 268 kts | 282° |
| 2026-04-20 20:23 | 51.97578 | 0.19898 | 5001 ft | 269 kts | 282° |
| 2026-04-20 20:23 | 51.97856 | 0.16905 | 5001 ft | 268 kts | 282° |
| 2026-04-20 20:24 | 51.98155 | 0.13913 | 5066 ft | 270 kts | 283° |
| 2026-04-20 20:24 | 51.98474 | 0.10889 | 5735 ft | 272 kts | 283° |
| 2026-04-20 20:24 | 51.98796 | 0.07885 | 6806 ft | 269 kts | 283° |
| 2026-04-20 20:24 | 51.98896 | 0.04835 | 7621 ft | 277 kts | 263° |
| 2026-04-20 20:25 | 51.98468 | 0.01711 | 8473 ft | 282 kts | 259° |
| 2026-04-20 20:25 | 51.98036 | -0.01410 | 9310 ft | 285 kts | 259° |
| 2026-04-20 20:25 | 51.97623 | -0.04529 | 10172 ft | 288 kts | 260° |
| 2026-04-20 20:25 | 51.97207 | -0.07734 | 10914 ft | 293 kts | 260° |
| 2026-04-20 20:26 | 51.96775 | -0.11068 | 11266 ft | 313 kts | 260° |
| 2026-04-20 20:26 | 51.96319 | -0.14578 | 11863 ft | 322 kts | 260° |
| 2026-04-20 20:26 | 51.95854 | -0.18142 | 12683 ft | 324 kts | 260° |
| 2026-04-20 20:26 | 51.95385 | -0.21721 | 13536 ft | 326 kts | 259° |
| 2026-04-20 20:27 | 51.94905 | -0.25392 | 13990 ft | 341 kts | 259° |
| 2026-04-20 20:27 | 51.94404 | -0.29206 | 14517 ft | 350 kts | 260° |
| 2026-04-20 20:27 | 51.93895 | -0.33071 | 15235 ft | 352 kts | 260° |
| 2026-04-20 20:27 | 51.93382 | -0.36957 | 15989 ft | 353 kts | 259° |
| 2026-04-20 20:28 | 51.93039 | -0.39543 | 16466 ft | 355 kts | 259° |
| 2026-04-20 20:28 | 51.92339 | -0.44801 | 17411 ft | 359 kts | 258° |
| 2026-04-20 20:28 | 51.91404 | -0.48575 | 18051 ft | 368 kts | 238° |
| 2026-04-20 20:28 | 51.89582 | -0.51518 | 18735 ft | 376 kts | 216° |
| 2026-04-20 20:29 | 51.87298 | -0.53617 | 19382 ft | 379 kts | 212° |
| 2026-04-20 20:29 | 51.84973 | -0.55661 | 19971 ft | 383 kts | 212° |
| 2026-04-20 20:29 | 51.82624 | -0.57726 | 20534 ft | 386 kts | 213° |
| 2026-04-20 20:29 | 51.80261 | -0.59813 | 21100 ft | 388 kts | 214° |
| 2026-04-20 20:30 | 51.77893 | -0.61915 | 21747 ft | 389 kts | 216° |
| 2026-04-20 20:30 | 51.75521 | -0.64031 | 22338 ft | 391 kts | 216° |
| 2026-04-20 20:30 | 51.73130 | -0.66171 | 22886 ft | 394 kts | 217° |
| 2026-04-20 20:30 | 51.70725 | -0.68326 | 23433 ft | 397 kts | 217° |
| 2026-04-20 20:31 | 51.68303 | -0.70495 | 23968 ft | 399 kts | 217° |
| 2026-04-20 20:31 | 51.65868 | -0.72675 | 24410 ft | 402 kts | 217° |
| 2026-04-20 20:31 | 51.63418 | -0.74865 | 24859 ft | 404 kts | 217° |
| 2026-04-20 20:31 | 51.60955 | -0.77063 | 25295 ft | 406 kts | 218° |
| 2026-04-20 20:32 | 51.58478 | -0.79271 | 25719 ft | 408 kts | 218° |
| 2026-04-20 20:32 | 51.55985 | -0.81492 | 26091 ft | 411 kts | 218° |
| 2026-04-20 20:32 | 51.53471 | -0.83728 | 26488 ft | 414 kts | 218° |
| 2026-04-20 20:32 | 51.50944 | -0.85972 | 26896 ft | 416 kts | 218° |
| 2026-04-20 20:33 | 51.48404 | -0.88225 | 27308 ft | 418 kts | 218° |
| 2026-04-20 20:33 | 51.45849 | -0.90488 | 27692 ft | 421 kts | 218° |
| 2026-04-20 20:33 | 51.43282 | -0.92758 | 28067 ft | 423 kts | 218° |
| 2026-04-20 20:33 | 51.40696 | -0.95043 | 28438 ft | 425 kts | 218° |
| 2026-04-20 20:34 | 51.38137 | -0.97301 | 28806 ft | 426 kts | 218° |
| 2026-04-20 20:34 | 51.35535 | -0.99592 | 29209 ft | 428 kts | 218° |
| 2026-04-20 20:34 | 51.32924 | -1.01890 | 29500 ft | 430 kts | 218° |
| 2026-04-20 20:34 | 51.30292 | -1.04205 | 29810 ft | 433 kts | 218° |
| 2026-04-20 20:35 | 51.27646 | -1.06528 | 30134 ft | 435 kts | 218° |
| 2026-04-20 20:35 | 51.24988 | -1.08858 | 30444 ft | 437 kts | 218° |
| 2026-04-20 20:35 | 51.22317 | -1.11195 | 30702 ft | 439 kts | 217° |
| 2026-04-20 20:35 | 51.19635 | -1.13538 | 30986 ft | 440 kts | 217° |
| 2026-04-20 20:36 | 51.16951 | -1.15879 | 31347 ft | 439 kts | 217° |
| 2026-04-20 20:36 | 51.14275 | -1.18209 | 31726 ft | 438 kts | 217° |
| 2026-04-20 20:36 | 51.11608 | -1.20531 | 32058 ft | 437 kts | 217° |
| 2026-04-20 20:36 | 51.08937 | -1.22854 | 32358 ft | 438 kts | 217° |
| 2026-04-20 20:37 | 51.06263 | -1.25177 | 32691 ft | 438 kts | 217° |
| 2026-04-20 20:37 | 51.03593 | -1.27494 | 33022 ft | 437 kts | 217° |
| 2026-04-20 20:37 | 51.00925 | -1.29806 | 33357 ft | 437 kts | 217° |
| 2026-04-20 20:37 | 50.98257 | -1.32115 | 33678 ft | 436 kts | 216° |
| 2026-04-20 20:38 | 50.96454 | -1.33673 | 33887 ft | 436 kts | 216° |
| 2026-04-20 20:38 | 50.93816 | -1.35922 | 34184 ft | 437 kts | 215° |
| 2026-04-20 20:38 | 50.91102 | -1.38116 | 34461 ft | 438 kts | 214° |
| 2026-04-20 20:38 | 50.88371 | -1.40269 | 34674 ft | 439 kts | 214° |
| 2026-04-20 20:39 | 50.85629 | -1.42427 | 34804 ft | 441 kts | 213° |
| 2026-04-20 20:39 | 50.82877 | -1.44603 | 34953 ft | 443 kts | 213° |
| 2026-04-20 20:39 | 50.80121 | -1.46791 | 35183 ft | 443 kts | 213° |
| 2026-04-20 20:39 | 50.77367 | -1.48983 | 35431 ft | 443 kts | 213° |
| 2026-04-20 20:40 | 50.74612 | -1.51175 | 35634 ft | 444 kts | 213° |
| 2026-04-20 20:40 | 50.71852 | -1.53367 | 35818 ft | 445 kts | 213° |
| 2026-04-20 20:40 | 50.69085 | -1.55557 | 36025 ft | 445 kts | 212° |
| 2026-04-20 20:40 | 50.66313 | -1.57746 | 36243 ft | 445 kts | 212° |
| 2026-04-20 20:41 | 50.63542 | -1.59932 | 36405 ft | 446 kts | 212° |
| 2026-04-20 20:41 | 50.60761 | -1.62123 | 36554 ft | 448 kts | 212° |
| 2026-04-20 20:41 | 50.57973 | -1.64318 | 36739 ft | 448 kts | 212° |
| 2026-04-20 20:41 | 50.55184 | -1.66510 | 36953 ft | 448 kts | 212° |
| 2026-04-20 20:42 | 50.52397 | -1.68699 | 37143 ft | 448 kts | 211° |
| 2026-04-20 20:42 | 50.49600 | -1.70893 | 37239 ft | 450 kts | 211° |
| 2026-04-20 20:42 | 50.43976 | -1.75295 | 37235 ft | 451 kts | 211° |
| 2026-04-20 20:43 | 50.38411 | -1.79634 | 37221 ft | 442 kts | 211° |
| 2026-04-20 20:43 | 50.32913 | -1.83914 | 37230 ft | 440 kts | 211° |
| 2026-04-20 20:44 | 50.27440 | -1.88167 | 37234 ft | 438 kts | 211° |
| 2026-04-20 20:44 | 50.21983 | -1.92395 | 37234 ft | 438 kts | 211° |
| 2026-04-20 20:45 | 50.16526 | -1.96613 | 37221 ft | 438 kts | 211° |
| 2026-04-20 20:45 | 50.11070 | -2.00819 | 37230 ft | 438 kts | 211° |
| 2026-04-20 20:46 | 50.05608 | -2.05019 | 37237 ft | 438 kts | 211° |
| 2026-04-20 20:46 | 50.00134 | -2.09218 | 37232 ft | 439 kts | 211° |
| 2026-04-20 20:47 | 49.94419 | -2.12720 | 37227 ft | 445 kts | 201° |
| 2026-04-20 20:47 | 49.88466 | -2.15414 | 37225 ft | 446 kts | 201° |
| 2026-04-20 20:48 | 49.82502 | -2.18079 | 37223 ft | 446 kts | 201° |
| 2026-04-20 20:48 | 49.76584 | -2.20784 | 37230 ft | 449 kts | 201° |
| 2026-04-20 20:49 | 49.70556 | -2.23577 | 37223 ft | 456 kts | 201° |
| 2026-04-20 20:49 | 49.64447 | -2.26408 | 37205 ft | 460 kts | 201° |
| 2026-04-20 20:50 | 49.58321 | -2.29234 | 37196 ft | 460 kts | 201° |
| 2026-04-20 20:50 | 49.52194 | -2.32052 | 37194 ft | 459 kts | 201° |
| 2026-04-20 20:51 | 49.46079 | -2.34858 | 37187 ft | 458 kts | 201° |
| 2026-04-20 20:51 | 49.39980 | -2.37650 | 37183 ft | 457 kts | 201° |
| 2026-04-20 20:52 | 49.33894 | -2.40430 | 37198 ft | 456 kts | 201° |
| 2026-04-20 20:52 | 49.27821 | -2.43197 | 37173 ft | 455 kts | 201° |
| 2026-04-20 20:53 | 49.21759 | -2.45952 | 37184 ft | 454 kts | 201° |
| 2026-04-20 20:53 | 49.15705 | -2.48696 | 37193 ft | 453 kts | 201° |
| 2026-04-20 20:54 | 49.09657 | -2.51430 | 37180 ft | 453 kts | 201° |
| 2026-04-20 20:54 | 49.03612 | -2.54156 | 37172 ft | 453 kts | 201° |
| 2026-04-20 20:55 | 48.97575 | -2.56872 | 37179 ft | 452 kts | 201° |
| 2026-04-20 20:55 | 48.91539 | -2.59580 | 37188 ft | 452 kts | 201° |
| 2026-04-20 20:56 | 48.85503 | -2.62282 | 37189 ft | 452 kts | 201° |
| 2026-04-20 20:56 | 48.79466 | -2.64977 | 37181 ft | 452 kts | 201° |
| 2026-04-20 20:57 | 48.73464 | -2.67649 | 37171 ft | 453 kts | 201° |
| 2026-04-20 20:57 | 48.67415 | -2.70336 | 37166 ft | 453 kts | 201° |
| 2026-04-20 20:58 | 48.61358 | -2.73020 | 37153 ft | 454 kts | 201° |
| 2026-04-20 20:58 | 48.55302 | -2.75696 | 37163 ft | 454 kts | 201° |
| 2026-04-20 20:59 | 48.49239 | -2.78369 | 37160 ft | 454 kts | 201° |
| 2026-04-20 20:59 | 48.43177 | -2.81035 | 37159 ft | 454 kts | 201° |
| 2026-04-20 21:00 | 48.37108 | -2.83697 | 37153 ft | 454 kts | 201° |
| 2026-04-20 21:00 | 48.31043 | -2.86350 | 37151 ft | 454 kts | 201° |
| 2026-04-20 21:01 | 48.24980 | -2.88997 | 37141 ft | 454 kts | 201° |
| 2026-04-20 21:01 | 48.18915 | -2.91637 | 37150 ft | 454 kts | 201° |
| 2026-04-20 21:02 | 48.12854 | -2.94269 | 37132 ft | 453 kts | 201° |
| 2026-04-20 21:02 | 48.06795 | -2.96895 | 37131 ft | 453 kts | 201° |
| 2026-04-20 21:03 | 48.00738 | -2.99512 | 37133 ft | 453 kts | 201° |
| 2026-04-20 21:03 | 47.94723 | -3.02106 | 37122 ft | 453 kts | 201° |
| 2026-04-20 21:04 | 47.88671 | -3.04709 | 37112 ft | 453 kts | 201° |
| 2026-04-20 21:04 | 47.82621 | -3.07304 | 37112 ft | 452 kts | 201° |
| 2026-04-20 21:05 | 47.76574 | -3.09893 | 37106 ft | 452 kts | 201° |
| 2026-04-20 21:05 | 47.70533 | -3.12472 | 37097 ft | 451 kts | 201° |
| 2026-04-20 21:06 | 47.64499 | -3.15042 | 37101 ft | 451 kts | 201° |
| 2026-04-20 21:06 | 47.58472 | -3.17603 | 37100 ft | 451 kts | 201° |
| 2026-04-20 21:07 | 47.52448 | -3.20157 | 37097 ft | 450 kts | 201° |
| 2026-04-20 21:07 | 47.46435 | -3.22700 | 37096 ft | 449 kts | 201° |
| 2026-04-20 21:08 | 47.40427 | -3.25235 | 37093 ft | 449 kts | 201° |
| 2026-04-20 21:08 | 47.34425 | -3.27762 | 37091 ft | 448 kts | 201° |
| 2026-04-20 21:09 | 47.28434 | -3.30277 | 37086 ft | 447 kts | 201° |
| 2026-04-20 21:09 | 47.22457 | -3.32781 | 37085 ft | 446 kts | 200° |
| 2026-04-20 21:10 | 47.16495 | -3.35272 | 37077 ft | 445 kts | 200° |
| 2026-04-20 21:10 | 47.10543 | -3.37755 | 37072 ft | 444 kts | 200° |
| 2026-04-20 21:11 | 47.04604 | -3.40225 | 37076 ft | 443 kts | 200° |
| 2026-04-20 21:11 | 46.98672 | -3.42688 | 37070 ft | 443 kts | 200° |
| 2026-04-20 21:12 | 46.92744 | -3.45142 | 37071 ft | 442 kts | 200° |
| 2026-04-20 21:12 | 46.86865 | -3.47572 | 37064 ft | 442 kts | 200° |
| 2026-04-20 21:13 | 46.80942 | -3.50013 | 37068 ft | 442 kts | 200° |
| 2026-04-20 21:13 | 46.75022 | -3.52448 | 37064 ft | 442 kts | 200° |
| 2026-04-20 21:14 | 46.69094 | -3.54881 | 37062 ft | 443 kts | 200° |
| 2026-04-20 21:14 | 46.63164 | -3.57309 | 37058 ft | 443 kts | 200° |
| 2026-04-20 21:15 | 46.57109 | -3.59107 | 37050 ft | 452 kts | 184° |
| 2026-04-20 21:15 | 46.50851 | -3.57583 | 37029 ft | 465 kts | 164° |
| 2026-04-20 21:16 | 46.44787 | -3.54298 | 37046 ft | 466 kts | 163° |
| 2026-04-20 21:16 | 46.38721 | -3.50982 | 37045 ft | 466 kts | 163° |
| 2026-04-20 21:17 | 46.32637 | -3.47722 | 37039 ft | 466 kts | 164° |
| 2026-04-20 21:17 | 46.26544 | -3.44501 | 37029 ft | 466 kts | 164° |
| 2026-04-20 21:18 | 46.20451 | -3.41298 | 37033 ft | 466 kts | 164° |
| 2026-04-20 21:18 | 46.14397 | -3.38123 | 37030 ft | 466 kts | 164° |
| 2026-04-20 21:19 | 46.08302 | -3.34933 | 37016 ft | 466 kts | 164° |
| 2026-04-20 21:20 | 45.99165 | -3.30162 | 37022 ft | 466 kts | 164° |
| 2026-04-20 21:20 | 45.93071 | -3.26989 | 37019 ft | 466 kts | 164° |
| 2026-04-20 21:21 | 45.86979 | -3.23825 | 37009 ft | 466 kts | 164° |
| 2026-04-20 21:21 | 45.80884 | -3.20667 | 37021 ft | 466 kts | 164° |
| 2026-04-20 21:22 | 45.74787 | -3.17515 | 37012 ft | 466 kts | 164° |
| 2026-04-20 21:22 | 45.68685 | -3.14368 | 37011 ft | 466 kts | 164° |
| 2026-04-20 21:23 | 45.62582 | -3.11228 | 36994 ft | 466 kts | 164° |
| 2026-04-20 21:23 | 45.56476 | -3.08093 | 37010 ft | 466 kts | 164° |
| 2026-04-20 21:24 | 45.50370 | -3.04965 | 36996 ft | 466 kts | 164° |
| 2026-04-20 21:24 | 45.44260 | -3.01843 | 37000 ft | 466 kts | 164° |
| 2026-04-20 21:25 | 45.38154 | -2.98730 | 36995 ft | 466 kts | 164° |
| 2026-04-20 21:25 | 45.32049 | -2.95625 | 36989 ft | 466 kts | 164° |
| 2026-04-20 21:26 | 45.25947 | -2.92528 | 36989 ft | 466 kts | 164° |
| 2026-04-20 21:26 | 45.19885 | -2.89458 | 36989 ft | 466 kts | 164° |
| 2026-04-20 21:27 | 45.13782 | -2.86376 | 36976 ft | 465 kts | 164° |
| 2026-04-20 21:27 | 45.07687 | -2.83303 | 36984 ft | 465 kts | 164° |
| 2026-04-20 21:28 | 45.02579 | -2.80734 | 36980 ft | 465 kts | 164° |
| 2026-04-20 21:28 | 44.96482 | -2.77673 | 36975 ft | 465 kts | 165° |
| 2026-04-20 21:29 | 44.90429 | -2.74642 | 36978 ft | 464 kts | 165° |
| 2026-04-20 21:29 | 44.84337 | -2.71598 | 36981 ft | 464 kts | 165° |
| 2026-04-20 21:30 | 44.78247 | -2.68562 | 36984 ft | 464 kts | 165° |
| 2026-04-20 21:30 | 44.72155 | -2.65532 | 36968 ft | 464 kts | 165° |
| 2026-04-20 21:31 | 44.66063 | -2.62508 | 36976 ft | 464 kts | 165° |
| 2026-04-20 21:31 | 44.59968 | -2.59489 | 36969 ft | 465 kts | 165° |
| 2026-04-20 21:32 | 44.53873 | -2.56477 | 36960 ft | 464 kts | 165° |
| 2026-04-20 21:32 | 44.47779 | -2.53473 | 36967 ft | 464 kts | 165° |
| 2026-04-20 21:33 | 44.41690 | -2.50477 | 36966 ft | 464 kts | 165° |
| 2026-04-20 21:33 | 44.35599 | -2.47487 | 36961 ft | 464 kts | 165° |
| 2026-04-20 21:34 | 44.29516 | -2.44508 | 36967 ft | 463 kts | 165° |
| 2026-04-20 21:34 | 44.23434 | -2.41535 | 36964 ft | 463 kts | 165° |
| 2026-04-20 21:35 | 44.17356 | -2.38572 | 36959 ft | 463 kts | 165° |
| 2026-04-20 21:35 | 44.11323 | -2.35636 | 36965 ft | 463 kts | 165° |
| 2026-04-20 21:36 | 44.05243 | -2.32684 | 36962 ft | 462 kts | 165° |
| 2026-04-20 21:36 | 43.99168 | -2.29741 | 36947 ft | 462 kts | 165° |
| 2026-04-20 21:37 | 43.93093 | -2.26805 | 36955 ft | 462 kts | 165° |
| 2026-04-20 21:37 | 43.87018 | -2.23874 | 36958 ft | 462 kts | 165° |
| 2026-04-20 21:38 | 43.80940 | -2.20949 | 36939 ft | 463 kts | 165° |
| 2026-04-20 21:38 | 43.74856 | -2.18027 | 36956 ft | 463 kts | 165° |
| 2026-04-20 21:39 | 43.68767 | -2.15109 | 36956 ft | 463 kts | 165° |
| 2026-04-20 21:39 | 43.62675 | -2.12195 | 36953 ft | 463 kts | 165° |
| 2026-04-20 21:40 | 43.56621 | -2.09306 | 36947 ft | 463 kts | 165° |
| 2026-04-20 21:40 | 43.50485 | -2.06385 | 36952 ft | 464 kts | 165° |
| 2026-04-20 21:41 | 43.44388 | -2.03487 | 36950 ft | 464 kts | 165° |
| 2026-04-20 21:41 | 43.38328 | -2.00614 | 36943 ft | 464 kts | 165° |
| 2026-04-20 21:42 | 43.32233 | -1.97730 | 36955 ft | 463 kts | 165° |
| 2026-04-20 21:42 | 43.26135 | -1.94851 | 36952 ft | 464 kts | 165° |
| 2026-04-20 21:43 | 43.20035 | -1.91971 | 36960 ft | 463 kts | 165° |
| 2026-04-20 21:43 | 43.13942 | -1.89107 | 36963 ft | 463 kts | 165° |
| 2026-04-20 21:44 | 43.07840 | -1.86248 | 36947 ft | 464 kts | 165° |
| 2026-04-20 21:44 | 43.01735 | -1.83390 | 36954 ft | 464 kts | 165° |
| 2026-04-20 21:45 | 42.95635 | -1.80540 | 36950 ft | 463 kts | 165° |
| 2026-04-20 21:45 | 42.89546 | -1.77701 | 36949 ft | 462 kts | 165° |
| 2026-04-20 21:46 | 42.83464 | -1.74871 | 36941 ft | 461 kts | 165° |
| 2026-04-20 21:46 | 42.77388 | -1.72080 | 36938 ft | 459 kts | 169° |
| 2026-04-20 21:46 | 42.74271 | -1.71462 | 36938 ft | 449 kts | 186° |
| 2026-04-20 21:47 | 42.71206 | -1.71958 | 36937 ft | 441 kts | 198° |
| 2026-04-20 21:47 | 42.68358 | -1.73372 | 36949 ft | 434 kts | 210° |
| 2026-04-20 21:47 | 42.65668 | -1.75218 | 36944 ft | 433 kts | 211° |
| 2026-04-20 21:48 | 42.60298 | -1.78957 | 36937 ft | 434 kts | 210° |
| 2026-04-20 21:48 | 42.54895 | -1.82625 | 36932 ft | 435 kts | 210° |
| 2026-04-20 21:49 | 42.49469 | -1.86252 | 36932 ft | 435 kts | 210° |
| 2026-04-20 21:49 | 42.44038 | -1.89873 | 36928 ft | 435 kts | 210° |
| 2026-04-20 21:50 | 42.38602 | -1.93498 | 36923 ft | 436 kts | 210° |
| 2026-04-20 21:50 | 42.33163 | -1.97122 | 36929 ft | 436 kts | 210° |
| 2026-04-20 21:51 | 42.27761 | -2.00723 | 36939 ft | 436 kts | 210° |
| 2026-04-20 21:51 | 42.22290 | -2.04359 | 36941 ft | 436 kts | 210° |
| 2026-04-20 21:52 | 42.16883 | -2.07941 | 36938 ft | 436 kts | 210° |
| 2026-04-20 21:52 | 42.11446 | -2.11534 | 36945 ft | 435 kts | 210° |
| 2026-04-20 21:53 | 42.06007 | -2.15121 | 36959 ft | 435 kts | 210° |
| 2026-04-20 21:53 | 42.00568 | -2.18702 | 36974 ft | 435 kts | 210° |
| 2026-04-20 21:54 | 41.95128 | -2.22279 | 36947 ft | 435 kts | 209° |
| 2026-04-20 21:54 | 41.89690 | -2.25848 | 36961 ft | 435 kts | 209° |
| 2026-04-20 21:55 | 41.84246 | -2.29414 | 36989 ft | 435 kts | 209° |
| 2026-04-20 21:55 | 41.78805 | -2.32971 | 36967 ft | 435 kts | 209° |
| 2026-04-20 21:56 | 41.73375 | -2.36513 | 36970 ft | 433 kts | 209° |
| 2026-04-20 21:56 | 41.67965 | -2.40036 | 36964 ft | 432 kts | 209° |
| 2026-04-20 21:57 | 41.62577 | -2.43539 | 36961 ft | 430 kts | 209° |
| 2026-04-20 21:57 | 41.57202 | -2.47028 | 36970 ft | 429 kts | 209° |
| 2026-04-20 21:58 | 41.51834 | -2.50506 | 36958 ft | 428 kts | 209° |
| 2026-04-20 21:58 | 41.46473 | -2.53964 | 36970 ft | 428 kts | 208° |
| 2026-04-20 21:59 | 41.41114 | -2.57408 | 36971 ft | 428 kts | 208° |
| 2026-04-20 21:59 | 41.35778 | -2.60790 | 36973 ft | 429 kts | 205° |
| 2026-04-20 22:00 | 41.29927 | -2.62599 | 36953 ft | 436 kts | 188° |
| 2026-04-20 22:00 | 41.23827 | -2.62359 | 36979 ft | 441 kts | 179° |
| 2026-04-20 22:01 | 41.17695 | -2.61709 | 36975 ft | 443 kts | 179° |
| 2026-04-20 22:01 | 41.11545 | -2.61114 | 36967 ft | 444 kts | 179° |
| 2026-04-20 22:02 | 41.05378 | -2.60559 | 36970 ft | 444 kts | 179° |
| 2026-04-20 22:02 | 40.99200 | -2.60008 | 36972 ft | 445 kts | 179° |
| 2026-04-20 22:03 | 40.93009 | -2.59454 | 36964 ft | 446 kts | 179° |
| 2026-04-20 22:03 | 40.86818 | -2.58901 | 36952 ft | 446 kts | 179° |
| 2026-04-20 22:04 | 40.80626 | -2.58348 | 36964 ft | 446 kts | 179° |
| 2026-04-20 22:04 | 40.74437 | -2.57796 | 36973 ft | 446 kts | 179° |
| 2026-04-20 22:05 | 40.68250 | -2.57246 | 36967 ft | 445 kts | 179° |
| 2026-04-20 22:05 | 40.62067 | -2.56697 | 36972 ft | 445 kts | 179° |
| 2026-04-20 22:06 | 40.55883 | -2.56149 | 36967 ft | 445 kts | 179° |
| 2026-04-20 22:06 | 40.49706 | -2.55603 | 36975 ft | 445 kts | 179° |
| 2026-04-20 22:07 | 40.43535 | -2.55058 | 36969 ft | 444 kts | 179° |
| 2026-04-20 22:07 | 40.37431 | -2.55032 | 36979 ft | 439 kts | 191° |
| 2026-04-20 22:08 | 40.31609 | -2.57169 | 36982 ft | 433 kts | 204° |
| 2026-04-20 22:08 | 40.25994 | -2.60059 | 36966 ft | 434 kts | 204° |
| 2026-04-20 22:09 | 40.20374 | -2.62931 | 36957 ft | 434 kts | 203° |
| 2026-04-20 22:09 | 40.14739 | -2.65768 | 36967 ft | 434 kts | 203° |
| 2026-04-20 22:10 | 40.09099 | -2.68586 | 36977 ft | 434 kts | 203° |
| 2026-04-20 22:10 | 40.03460 | -2.71396 | 36965 ft | 434 kts | 203° |
| 2026-04-20 22:11 | 39.97824 | -2.74202 | 36959 ft | 433 kts | 203° |
| 2026-04-20 22:11 | 39.92191 | -2.77001 | 36960 ft | 433 kts | 203° |
| 2026-04-20 22:12 | 39.86562 | -2.79794 | 36959 ft | 433 kts | 203° |
| 2026-04-20 22:12 | 39.80937 | -2.82579 | 36958 ft | 433 kts | 203° |
| 2026-04-20 22:13 | 39.75308 | -2.85362 | 36959 ft | 432 kts | 203° |
| 2026-04-20 22:13 | 39.69683 | -2.88138 | 36959 ft | 433 kts | 203° |
| 2026-04-20 22:14 | 39.64053 | -2.90913 | 36955 ft | 433 kts | 203° |
| 2026-04-20 22:14 | 39.58423 | -2.93682 | 36954 ft | 433 kts | 203° |
| 2026-04-20 22:15 | 39.52795 | -2.96455 | 36943 ft | 433 kts | 203° |
| 2026-04-20 22:15 | 39.47167 | -2.99227 | 36950 ft | 433 kts | 203° |
| 2026-04-20 22:16 | 39.41544 | -3.01991 | 36949 ft | 433 kts | 203° |
| 2026-04-20 22:16 | 39.36865 | -3.04280 | 36952 ft | 433 kts | 202° |
| 2026-04-20 22:17 | 39.31230 | -3.07013 | 36956 ft | 432 kts | 202° |
| 2026-04-20 22:17 | 39.25600 | -3.09740 | 36949 ft | 432 kts | 202° |
| 2026-04-20 22:18 | 39.19975 | -3.12463 | 36952 ft | 432 kts | 202° |
| 2026-04-20 22:18 | 39.14351 | -3.15181 | 36954 ft | 432 kts | 202° |
| 2026-04-20 22:19 | 39.08730 | -3.17894 | 36956 ft | 432 kts | 202° |
| 2026-04-20 22:19 | 39.03107 | -3.20604 | 36958 ft | 431 kts | 202° |
| 2026-04-20 22:20 | 38.97482 | -3.23311 | 36959 ft | 432 kts | 202° |
| 2026-04-20 22:20 | 38.91860 | -3.26020 | 36962 ft | 432 kts | 202° |
| 2026-04-20 22:21 | 38.86234 | -3.28729 | 36961 ft | 432 kts | 202° |
| 2026-04-20 22:21 | 38.80642 | -3.31418 | 36957 ft | 432 kts | 202° |
| 2026-04-20 22:22 | 38.75010 | -3.34121 | 36973 ft | 432 kts | 202° |
| 2026-04-20 22:22 | 38.69376 | -3.36820 | 36965 ft | 432 kts | 202° |
| 2026-04-20 22:23 | 38.63742 | -3.39514 | 36962 ft | 433 kts | 202° |
| 2026-04-20 22:23 | 38.58101 | -3.42207 | 36954 ft | 433 kts | 202° |
| 2026-04-20 22:24 | 38.52460 | -3.44896 | 36968 ft | 433 kts | 202° |
| 2026-04-20 22:24 | 38.46816 | -3.47582 | 36971 ft | 433 kts | 202° |
| 2026-04-20 22:25 | 38.41165 | -3.50266 | 36966 ft | 434 kts | 202° |
| 2026-04-20 22:25 | 38.35509 | -3.52949 | 36956 ft | 434 kts | 202° |
| 2026-04-20 22:26 | 38.29860 | -3.55624 | 36951 ft | 429 kts | 202° |
| 2026-04-20 22:26 | 38.27100 | -3.56928 | 36930 ft | 417 kts | 202° |
| 2026-04-20 22:26 | 38.24402 | -3.58203 | 36618 ft | 409 kts | 202° |
| 2026-04-20 22:27 | 38.19144 | -3.60685 | 35974 ft | 398 kts | 202° |
| 2026-04-20 22:27 | 38.16534 | -3.61837 | 35576 ft | 397 kts | 196° |
| 2026-04-20 22:27 | 38.13829 | -3.62508 | 35208 ft | 396 kts | 188° |
| 2026-04-20 22:27 | 38.11080 | -3.62639 | 34823 ft | 395 kts | 182° |
| 2026-04-20 22:28 | 38.08378 | -3.62640 | 34460 ft | 393 kts | 182° |
| 2026-04-20 22:28 | 38.05619 | -3.62630 | 34085 ft | 390 kts | 182° |
| 2026-04-20 22:28 | 38.02915 | -3.62628 | 33714 ft | 401 kts | 182° |
| 2026-04-20 22:28 | 38.00064 | -3.62622 | 33309 ft | 419 kts | 180° |
| 2026-04-20 22:29 | 37.97139 | -3.62141 | 32848 ft | 427 kts | 168° |
| 2026-04-20 22:29 | 37.94309 | -3.60993 | 31881 ft | 429 kts | 162° |
| 2026-04-20 22:29 | 37.91505 | -3.59624 | 30851 ft | 434 kts | 161° |
| 2026-04-20 22:29 | 37.88694 | -3.58207 | 29937 ft | 435 kts | 161° |
| 2026-04-20 22:30 | 37.85894 | -3.56800 | 29116 ft | 430 kts | 161° |
| 2026-04-20 22:30 | 37.83132 | -3.55429 | 28439 ft | 423 kts | 161° |
| 2026-04-20 22:30 | 37.80412 | -3.54099 | 27756 ft | 416 kts | 161° |
| 2026-04-20 22:30 | 37.77719 | -3.52796 | 26893 ft | 414 kts | 162° |
| 2026-04-20 22:31 | 37.75001 | -3.51494 | 25576 ft | 423 kts | 162° |
| 2026-04-20 22:31 | 37.72217 | -3.50166 | 24399 ft | 430 kts | 161° |
| 2026-04-20 22:31 | 37.69425 | -3.48834 | 23492 ft | 428 kts | 161° |
| 2026-04-20 22:31 | 37.66661 | -3.47515 | 22607 ft | 421 kts | 161° |
| 2026-04-20 22:32 | 37.63941 | -3.46216 | 21785 ft | 414 kts | 161° |
| 2026-04-20 22:32 | 37.61265 | -3.44940 | 20952 ft | 409 kts | 161° |
| 2026-04-20 22:32 | 37.58618 | -3.43679 | 20113 ft | 404 kts | 161° |
| 2026-04-20 22:32 | 37.55998 | -3.42433 | 19304 ft | 401 kts | 161° |
| 2026-04-20 22:33 | 37.53400 | -3.41198 | 18475 ft | 398 kts | 161° |
| 2026-04-20 22:33 | 37.50823 | -3.39974 | 17618 ft | 394 kts | 161° |
| 2026-04-20 22:33 | 37.48280 | -3.38766 | 16816 ft | 388 kts | 161° |
| 2026-04-20 22:33 | 37.45768 | -3.37574 | 16040 ft | 383 kts | 161° |
| 2026-04-20 22:34 | 37.43293 | -3.36400 | 15276 ft | 378 kts | 161° |
| 2026-04-20 22:34 | 37.40876 | -3.35255 | 14535 ft | 374 kts | 161° |
| 2026-04-20 22:34 | 37.38421 | -3.34093 | 13775 ft | 370 kts | 161° |
| 2026-04-20 22:34 | 37.36067 | -3.32979 | 13279 ft | 359 kts | 161° |
| 2026-04-20 22:35 | 37.33791 | -3.31901 | 13056 ft | 341 kts | 161° |
| 2026-04-20 22:35 | 37.31643 | -3.30885 | 13008 ft | 319 kts | 161° |
| 2026-04-20 22:35 | 37.29618 | -3.29928 | 12996 ft | 304 kts | 161° |
| 2026-04-20 22:35 | 37.27622 | -3.28980 | 13028 ft | 315 kts | 159° |
| 2026-04-20 22:36 | 37.25774 | -3.27357 | 13023 ft | 339 kts | 131° |
| 2026-04-20 22:36 | 37.24636 | -3.24703 | 13026 ft | 355 kts | 107° |
| 2026-04-20 22:36 | 37.24141 | -3.21663 | 13034 ft | 355 kts | 101° |
| 2026-04-20 22:36 | 37.23739 | -3.18615 | 13013 ft | 352 kts | 100° |
| 2026-04-20 22:37 | 37.23354 | -3.15594 | 13010 ft | 350 kts | 100° |
| 2026-04-20 22:37 | 37.22968 | -3.12589 | 13013 ft | 348 kts | 100° |
| 2026-04-20 22:37 | 37.22574 | -3.09591 | 13022 ft | 351 kts | 101° |
| 2026-04-20 22:37 | 37.22166 | -3.06542 | 13029 ft | 357 kts | 101° |
| 2026-04-20 22:38 | 37.21749 | -3.03466 | 13015 ft | 356 kts | 100° |
| 2026-04-20 22:38 | 37.21332 | -3.00427 | 13008 ft | 351 kts | 101° |
| 2026-04-20 22:38 | 37.20917 | -2.97411 | 13016 ft | 351 kts | 101° |
| 2026-04-20 22:38 | 37.20498 | -2.94386 | 13026 ft | 353 kts | 101° |
| 2026-04-20 22:39 | 37.20075 | -2.91346 | 13025 ft | 354 kts | 101° |
| 2026-04-20 22:39 | 37.19650 | -2.88300 | 13015 ft | 355 kts | 101° |
| 2026-04-20 22:39 | 37.19224 | -2.85246 | 13011 ft | 355 kts | 101° |
| 2026-04-20 22:39 | 37.18797 | -2.82197 | 13011 ft | 355 kts | 101° |
| 2026-04-20 22:40 | 37.18369 | -2.79146 | 13011 ft | 355 kts | 101° |
| 2026-04-20 22:40 | 37.17941 | -2.76102 | 13008 ft | 354 kts | 101° |
| 2026-04-20 22:40 | 37.17513 | -2.73065 | 13002 ft | 353 kts | 101° |
| 2026-04-20 22:40 | 37.17086 | -2.70035 | 13006 ft | 353 kts | 101° |
| 2026-04-20 22:41 | 37.16658 | -2.67012 | 13001 ft | 352 kts | 101° |
| 2026-04-20 22:41 | 37.16230 | -2.63993 | 13005 ft | 352 kts | 101° |
| 2026-04-20 22:41 | 37.15802 | -2.60974 | 13008 ft | 351 kts | 101° |
| 2026-04-20 22:41 | 37.15373 | -2.57958 | 12994 ft | 351 kts | 101° |
| 2026-04-20 22:42 | 37.14943 | -2.54944 | 12993 ft | 352 kts | 101° |
| 2026-04-20 22:42 | 37.14513 | -2.51929 | 12996 ft | 351 kts | 101° |
| 2026-04-20 22:42 | 37.14089 | -2.48958 | 12924 ft | 339 kts | 101° |
| 2026-04-20 22:42 | 37.13683 | -2.46119 | 12806 ft | 322 kts | 101° |
| 2026-04-20 22:43 | 37.13297 | -2.43425 | 12685 ft | 306 kts | 101° |
| 2026-04-20 22:43 | 37.12925 | -2.40840 | 12378 ft | 299 kts | 101° |
| 2026-04-20 22:43 | 37.12558 | -2.38290 | 11966 ft | 295 kts | 101° |
| 2026-04-20 22:43 | 37.12197 | -2.35790 | 11494 ft | 288 kts | 101° |
| 2026-04-20 22:44 | 37.11842 | -2.33334 | 10967 ft | 282 kts | 101° |
| 2026-04-20 22:44 | 37.11499 | -2.30956 | 10477 ft | 273 kts | 101° |
| 2026-04-20 22:44 | 37.11161 | -2.28623 | 9853 ft | 271 kts | 100° |
| 2026-04-20 22:44 | 37.10828 | -2.26329 | 9179 ft | 270 kts | 100° |
| 2026-04-20 22:45 | 37.10505 | -2.24104 | 8995 ft | 250 kts | 100° |
| 2026-04-20 22:45 | 37.10188 | -2.22023 | 8732 ft | 236 kts | 105° |
| 2026-04-20 22:45 | 37.09488 | -2.20198 | 8563 ft | 231 kts | 122° |
| 2026-04-20 22:45 | 37.08666 | -2.18472 | 8343 ft | 231 kts | 121° |
| 2026-04-20 22:46 | 37.07620 | -2.16986 | 8142 ft | 228 kts | 146° |
| 2026-04-20 22:46 | 37.06297 | -2.15936 | 8007 ft | 224 kts | 148° |
| 2026-04-20 22:46 | 37.04985 | -2.14880 | 7776 ft | 225 kts | 148° |
| 2026-04-20 22:46 | 37.03676 | -2.13821 | 7430 ft | 224 kts | 147° |
| 2026-04-20 22:47 | 37.02364 | -2.12764 | 7026 ft | 225 kts | 148° |
| 2026-04-20 22:47 | 37.00994 | -2.11875 | 6626 ft | 222 kts | 165° |
| 2026-04-20 22:47 | 36.99492 | -2.11464 | 6227 ft | 220 kts | 168° |
| 2026-04-20 22:47 | 36.98017 | -2.11060 | 5924 ft | 214 kts | 169° |
| 2026-04-20 22:48 | 36.96598 | -2.11108 | 5762 ft | 198 kts | 199° |
| 2026-04-20 22:48 | 36.95307 | -2.11703 | 5805 ft | 199 kts | 201° |
| 2026-04-20 22:48 | 36.94009 | -2.12302 | 5800 ft | 198 kts | 201° |
| 2026-04-20 22:48 | 36.92718 | -2.12897 | 5792 ft | 197 kts | 201° |
| 2026-04-20 22:49 | 36.91434 | -2.13489 | 5794 ft | 197 kts | 201° |
| 2026-04-20 22:49 | 36.90187 | -2.14299 | 5228 ft | 215 kts | 226° |
| 2026-04-20 22:49 | 36.89520 | -2.15976 | 4539 ft | 223 kts | 257° |
| 2026-04-20 22:49 | 36.89131 | -2.17880 | 3806 ft | 230 kts | 252° |
| 2026-04-20 22:50 | 36.88634 | -2.19813 | 3081 ft | 237 kts | 252° |
| 2026-04-20 22:50 | 36.88134 | -2.21793 | 2359 ft | 241 kts | 253° |
| 2026-04-20 22:50 | 36.87649 | -2.23761 | 1949 ft | 231 kts | 253° |
| 2026-04-20 22:50 | 36.87191 | -2.25625 | 1631 ft | 216 kts | 253° |
| 2026-04-20 22:51 | 36.86768 | -2.27343 | 1356 ft | 198 kts | 253° |
| 2026-04-20 22:51 | 36.86381 | -2.28915 | 1119 ft | 180 kts | 253° |
| 2026-04-20 22:51 | 36.86037 | -2.30314 | 894 ft | 161 kts | 253° |
| 2026-04-20 22:51 | 36.85728 | -2.31574 | 735 ft | 145 kts | 253° |
| 2026-04-20 22:52 | 36.85427 | -2.32765 | 526 ft | 146 kts | 253° |
| 2026-04-20 22:52 | 36.85130 | -2.33986 | 334 ft | 146 kts | 254° |
| 2026-04-20 22:52 | 36.84832 | -2.35222 | 122 ft | 149 kts | 253° |
| 2026-04-20 22:52 | 36.84547 | -2.36393 | 54 ft | 123 kts | 252° |
| 2026-04-20 22:53 | 36.84360 | -2.37158 | 59 ft | 61 kts | 252° |
| 2026-04-20 22:53 | 36.84240 | -2.37645 | 63 ft | 51 kts | 253° |
| 2026-04-20 22:53 | 36.84197 | -2.37971 | 60 ft | 32 kts | 270° |
| 2026-04-20 22:53 | 36.84227 | -2.38168 | 59 ft | 13 kts | 290° |
| 2026-04-20 22:54 | 36.84274 | -2.38192 | 63 ft | 8 kts | 43° |
| 2026-04-20 22:54 | 36.84294 | -2.38133 | 56 ft | 7 kts | 73° |
| 2026-04-20 22:54 | 36.84314 | -2.38049 | 61 ft | 14 kts | 73° |
| 2026-04-20 22:54 | 36.84342 | -2.37935 | 60 ft | 13 kts | 72° |
| 2026-04-20 22:55 | 36.84372 | -2.37813 | 62 ft | 16 kts | 72° |
| 2026-04-20 22:55 | 36.84407 | -2.37671 | 65 ft | 17 kts | 73° |
| 2026-04-20 22:55 | 36.84441 | -2.37536 | 62 ft | 13 kts | 71° |
| 2026-04-20 22:55 | 36.84482 | -2.37500 | 65 ft | 7 kts | 354° |
| 2026-04-20 22:56 | 36.84525 | -2.37482 | 61 ft | 7 kts | 48° |
| 2026-04-20 22:56 | 36.84546 | -2.37410 | 66 ft | 11 kts | 72° |
| 2026-04-20 22:56 | 36.84569 | -2.37316 | 61 ft | 11 kts | 73° |
| 2026-04-20 22:56 | 36.84592 | -2.37221 | 65 ft | 11 kts | 72° |
| 2026-04-20 22:57 | 36.84614 | -2.37172 | 64 ft | 4 kts | 22° |
| 2026-04-20 22:57 | 36.84637 | -2.37175 | 68 ft | 3 kts | 345° |
| 2026-04-20 22:57 | 36.84658 | -2.37182 | 59 ft | 3 kts | 345° |
| 2026-04-20 22:57 | 36.84676 | -2.37188 | 64 ft | 3 kts | 348° |
| 2026-04-20 22:58 | 36.84694 | -2.37184 | 67 ft | 2 kts | 32° |
| 2026-04-20 22:58 | 36.84697 | -2.37171 | 62 ft | 3 kts | 80° |
| 2026-04-20 22:58 | 36.84680 | -2.37155 | 64 ft | 3 kts | 176° |
| 2026-04-20 22:58 | 36.84670 | -2.37150 | 64 ft | 0 kts | 149° |